Cosco Melbourne — V7IF5 — position and weather

sailwx.info

Track history (hours):
 
Tides and Currents Weather Stations Pressure Air Temp Water Temp Dewpoint Dewpoint Depression Visibility Wind Speed Wind Dir Waves Ship Positions

Cosco Melbourne

Last reported at 2014-Oct-10 20:14 UTC. Time now 2014-Nov-01 00:35 UTC.
Position N 31°22' E 032°20'.
Warning: this ship's position is 21 days out of date.

Type: Ship (hazmat cat A). MMSI: 538002366.

Date/timePositionNaut miles runAvg speedWind from/ knotsBaromVisibWave heightAir tempDewpointWater temp
2014-Oct-10 20:14N 31°22' E 032°20'0 0.0
2014-Oct-10 18:32N 31°22' E 032°20'0 0.0
2014-Oct-10 17:30N 31°22' E 032°20'  
2014-Oct-07 19:33N 37°36' E 011°08'3316.4
2014-Oct-07 17:33N 37°49' E 010°30'1616.3
2014-Oct-07 16:33N 37°52' E 010°10'1616.3
2014-Oct-07 15:33N 37°52' E 009°49'1716.6
2014-Oct-07 14:33N 37°52' E 009°28'1716.7
2014-Oct-07 13:33N 37°52' E 009°07'2016.8
2014-Oct-07 12:23N 37°52' E 008°42'1616.3
2014-Oct-07 11:25N 37°52' E 008°22'3317.0
2014-Oct-07 09:30N 37°52' E 007°41'1915.9
2014-Oct-07 08:21N 37°52' E 007°18'2116.2
2014-Oct-07 07:03N 37°52' E 006°51'3116.6
2014-Oct-07 05:13N 37°52' E 006°12'5016.7
2014-Oct-07 02:13N 37°52' E 005°09'1116.7
2014-Oct-07 01:31N 37°52' E 004°54'1616.8
2014-Oct-07 00:33N 37°52' E 004°34'1716.6
2014-Oct-06 23:33N 37°52' E 004°13'1616.5
2014-Oct-06 22:33N 37°52' E 003°52'2216.5
2014-Oct-06 21:14N 37°52' E 003°24'1216.5
2014-Oct-06 20:32N 37°52' E 003°09'1616.4
2014-Oct-06 19:33N 37°52' E 002°49'1616.3
2014-Oct-06 18:33N 37°48' E 002°29'7016.7
2014-Oct-06 14:23N 37°19' E 001°09'2216.7
2014-Oct-06 13:05N 37°09' E 000°45'916.4
2014-Oct-06 12:33N 37°06' E 000°35'1916.8
2014-Oct-06 11:27N 36°58' E 000°14'1516.8
2014-Oct-06 10:33N 36°51' W 000°03'1716.5
2014-Oct-06 09:33N 36°44' W 000°22'2216.8
2014-Oct-06 08:14N 36°35' W 000°47'22716.5
2014-Oct-05 18:27N 35°58' W 005°25'28416.8
2014-Oct-05 01:31N 35°57' W 011°16'1616.9
2014-Oct-05 00:33N 35°58' W 011°36'3316.4
2014-Oct-04 22:33N 36°01' W 012°16'1916.5
2014-Oct-04 21:24N 36°02' W 012°39'1416.7
2014-Oct-04 20:33N 36°03' W 012°57'1917.1
2014-Oct-04 19:28N 36°04' W 013°20'1617.0
2014-Oct-04 18:33N 36°05' W 013°39'1716.6
2014-Oct-04 17:33N 36°06' W 013°60'18316.6
2014-Oct-04 06:33N 36°19' W 017°45'2516.6
2014-Oct-04 05:04N 36°20' W 018°16'19516.7
2014-Oct-03 17:25N 36°34' W 022°18'1617.3
2014-Oct-03 16:28N 36°35' W 022°38'1717.5
2014-Oct-03 15:30N 36°36' W 022°59'1617.1
2014-Oct-03 14:32N 36°37' W 023°20'1716.9
2014-Oct-03 13:33N 36°38' W 023°40'1717.1
2014-Oct-03 12:33N 36°39' W 024°02'1717.1
2014-Oct-03 11:33N 36°41' W 024°23'1717.0
2014-Oct-03 10:33N 36°42' W 024°44'1716.9
2014-Oct-03 09:33N 36°43' W 025°05'1716.8
2014-Oct-03 08:33N 36°43' W 025°26'1717.0
2014-Oct-03 07:33N 36°44' W 025°47'1716.9
2014-Oct-03 06:33N 36°44' W 026°08'1717.0
2014-Oct-03 05:33N 36°44' W 026°29'1716.9
2014-Oct-03 04:33N 36°43' W 026°51'1716.9
2014-Oct-03 03:33N 36°43' W 027°12'1716.9
2014-Oct-03 02:33N 36°43' W 027°33'1817.1
2014-Oct-03 01:32N 36°43' W 027°55'1717.1
2014-Oct-03 00:33N 36°43' W 028°15'2116.6
2014-Oct-02 23:19N 36°42' W 028°41'1416.6
2014-Oct-02 22:27N 36°42' W 028°59'1516.8
2014-Oct-02 21:33N 36°42' W 029°18'1716.8
2014-Oct-02 20:31N 36°42' W 029°40'1617.0
2014-Oct-02 19:33N 36°41' W 029°60'3817.1
2014-Oct-02 17:20N 36°40' W 030°47'5016.9
2014-Oct-02 14:21N 36°38' W 031°50'  
Track history (hours):
 
Tides and Currents Weather Stations Pressure Air Temp Water Temp Dewpoint Dewpoint Depression Visibility Wind Speed Wind Dir Waves Ship Positions

Cosco Melbourne

Last reported at 2014-Oct-10 20:14 UTC. Time now 2014-Nov-01 00:35 UTC.
Position N 31°22' E 032°20'.
Warning: this ship's position is 21 days out of date.

Type: Ship (hazmat cat A). MMSI: 538002366.

Date/timePositionNaut miles runAvg speedWind from/ knotsBaromVisibWave heightAir tempDewpointWater temp
2014-Oct-10 20:14N 31°22' E 032°20'0 0.0
2014-Oct-10 18:32N 31°22' E 032°20'0 0.0
2014-Oct-10 17:30N 31°22' E 032°20'  
2014-Oct-07 19:33N 37°36' E 011°08'3316.4
2014-Oct-07 17:33N 37°49' E 010°30'1616.3
2014-Oct-07 16:33N 37°52' E 010°10'1616.3
2014-Oct-07 15:33N 37°52' E 009°49'1716.6
2014-Oct-07 14:33N 37°52' E 009°28'1716.7
2014-Oct-07 13:33N 37°52' E 009°07'2016.8
2014-Oct-07 12:23N 37°52' E 008°42'1616.3
2014-Oct-07 11:25N 37°52' E 008°22'3317.0
2014-Oct-07 09:30N 37°52' E 007°41'1915.9
2014-Oct-07 08:21N 37°52' E 007°18'2116.2
2014-Oct-07 07:03N 37°52' E 006°51'3116.6
2014-Oct-07 05:13N 37°52' E 006°12'5016.7
2014-Oct-07 02:13N 37°52' E 005°09'1116.7
2014-Oct-07 01:31N 37°52' E 004°54'1616.8
2014-Oct-07 00:33N 37°52' E 004°34'1716.6
2014-Oct-06 23:33N 37°52' E 004°13'1616.5
2014-Oct-06 22:33N 37°52' E 003°52'2216.5
2014-Oct-06 21:14N 37°52' E 003°24'1216.5
2014-Oct-06 20:32N 37°52' E 003°09'1616.4
2014-Oct-06 19:33N 37°52' E 002°49'1616.3
2014-Oct-06 18:33N 37°48' E 002°29'7016.7
2014-Oct-06 14:23N 37°19' E 001°09'2216.7
2014-Oct-06 13:05N 37°09' E 000°45'916.4
2014-Oct-06 12:33N 37°06' E 000°35'1916.8
2014-Oct-06 11:27N 36°58' E 000°14'1516.8
2014-Oct-06 10:33N 36°51' W 000°03'1716.5
2014-Oct-06 09:33N 36°44' W 000°22'2216.8
2014-Oct-06 08:14N 36°35' W 000°47'22716.5
2014-Oct-05 18:27N 35°58' W 005°25'28416.8
2014-Oct-05 01:31N 35°57' W 011°16'1616.9
2014-Oct-05 00:33N 35°58' W 011°36'3316.4
2014-Oct-04 22:33N 36°01' W 012°16'1916.5
2014-Oct-04 21:24N 36°02' W 012°39'1416.7
2014-Oct-04 20:33N 36°03' W 012°57'1917.1
2014-Oct-04 19:28N 36°04' W 013°20'1617.0
2014-Oct-04 18:33N 36°05' W 013°39'1716.6
2014-Oct-04 17:33N 36°06' W 013°60'18316.6
2014-Oct-04 06:33N 36°19' W 017°45'2516.6
2014-Oct-04 05:04N 36°20' W 018°16'19516.7
2014-Oct-03 17:25N 36°34' W 022°18'1617.3
2014-Oct-03 16:28N 36°35' W 022°38'1717.5
2014-Oct-03 15:30N 36°36' W 022°59'1617.1
2014-Oct-03 14:32N 36°37' W 023°20'1716.9
2014-Oct-03 13:33N 36°38' W 023°40'1717.1
2014-Oct-03 12:33N 36°39' W 024°02'1717.1
2014-Oct-03 11:33N 36°41' W 024°23'1717.0
2014-Oct-03 10:33N 36°42' W 024°44'1716.9
2014-Oct-03 09:33N 36°43' W 025°05'1716.8
2014-Oct-03 08:33N 36°43' W 025°26'1717.0
2014-Oct-03 07:33N 36°44' W 025°47'1716.9
2014-Oct-03 06:33N 36°44' W 026°08'1717.0
2014-Oct-03 05:33N 36°44' W 026°29'1716.9
2014-Oct-03 04:33N 36°43' W 026°51'1716.9
2014-Oct-03 03:33N 36°43' W 027°12'1716.9
2014-Oct-03 02:33N 36°43' W 027°33'1817.1
2014-Oct-03 01:32N 36°43' W 027°55'1717.1
2014-Oct-03 00:33N 36°43' W 028°15'2116.6
2014-Oct-02 23:19N 36°42' W 028°41'1416.6
2014-Oct-02 22:27N 36°42' W 028°59'1516.8
2014-Oct-02 21:33N 36°42' W 029°18'1716.8
2014-Oct-02 20:31N 36°42' W 029°40'1617.0
2014-Oct-02 19:33N 36°41' W 029°60'3817.1
2014-Oct-02 17:20N 36°40' W 030°47'5016.9
2014-Oct-02 14:21N 36°38' W 031°50'  

Dump ship's entire track history